sensor_id;sensor_type;location;lat;lon;timestamp;P1;durP1;ratioP1;P2;durP2;ratioP2
59239;SDS011;45010;53.640;10.578;2023-05-28T00:02:55;2.75;;;1.60;;
59239;SDS011;45010;53.640;10.578;2023-05-28T00:05:57;2.50;;;1.27;;
59239;SDS011;45010;53.640;10.578;2023-05-28T00:08:57;2.20;;;1.58;;
59239;SDS011;45010;53.640;10.578;2023-05-28T00:11:58;4.30;;;1.52;;
59239;SDS011;45010;53.640;10.578;2023-05-28T00:14:58;2.13;;;1.40;;
59239;SDS011;45010;53.640;10.578;2023-05-28T00:17:59;1.85;;;1.35;;
59239;SDS011;45010;53.640;10.578;2023-05-28T00:21:01;3.30;;;1.80;;
59239;SDS011;45010;53.640;10.578;2023-05-28T00:24:02;2.80;;;1.58;;
59239;SDS011;45010;53.640;10.578;2023-05-28T00:27:03;2.38;;;1.50;;
59239;SDS011;45010;53.640;10.578;2023-05-28T00:30:04;2.00;;;1.20;;
59239;SDS011;45010;53.640;10.578;2023-05-28T00:33:05;2.35;;;1.25;;
59239;SDS011;45010;53.640;10.578;2023-05-28T00:36:05;3.08;;;1.38;;
59239;SDS011;45010;53.640;10.578;2023-05-28T00:39:06;3.20;;;1.80;;
59239;SDS011;45010;53.640;10.578;2023-05-28T00:42:06;2.47;;;1.50;;
59239;SDS011;45010;53.640;10.578;2023-05-28T00:45:07;2.60;;;1.55;;
59239;SDS011;45010;53.640;10.578;2023-05-28T00:48:08;3.28;;;1.60;;
59239;SDS011;45010;53.640;10.578;2023-05-28T00:51:08;2.38;;;1.35;;
59239;SDS011;45010;53.640;10.578;2023-05-28T00:54:10;3.30;;;1.67;;
59239;SDS011;45010;53.640;10.578;2023-05-28T00:57:11;2.05;;;1.50;;
59239;SDS011;45010;53.640;10.578;2023-05-28T01:00:12;4.30;;;1.50;;
59239;SDS011;45010;53.640;10.578;2023-05-28T01:03:14;2.42;;;1.33;;
59239;SDS011;45010;53.640;10.578;2023-05-28T01:06:14;1.70;;;1.30;;
59239;SDS011;45010;53.640;10.578;2023-05-28T01:09:15;1.90;;;1.20;;
59239;SDS011;45010;53.640;10.578;2023-05-28T01:12:15;1.90;;;1.33;;
59239;SDS011;45010;53.640;10.578;2023-05-28T01:15:17;2.55;;;1.30;;
59239;SDS011;45010;53.640;10.578;2023-05-28T01:18:17;2.05;;;1.23;;
59239;SDS011;45010;53.640;10.578;2023-05-28T01:21:18;1.92;;;1.33;;
59239;SDS011;45010;53.640;10.578;2023-05-28T01:24:18;2.95;;;1.50;;
59239;SDS011;45010;53.640;10.578;2023-05-28T01:27:19;1.77;;;1.30;;
59239;SDS011;45010;53.640;10.578;2023-05-28T01:30:19;1.60;;;1.30;;
59239;SDS011;45010;53.640;10.578;2023-05-28T01:33:20;3.17;;;1.40;;
59239;SDS011;45010;53.640;10.578;2023-05-28T01:36:30;1.73;;;1.30;;
59239;SDS011;45010;53.640;10.578;2023-05-28T01:39:35;2.08;;;1.42;;
59239;SDS011;45010;53.640;10.578;2023-05-28T01:42:39;2.35;;;1.52;;
59239;SDS011;45010;53.640;10.578;2023-05-28T01:45:40;2.63;;;1.42;;
59239;SDS011;45010;53.640;10.578;2023-05-28T01:48:41;2.20;;;1.50;;
59239;SDS011;45010;53.640;10.578;2023-05-28T01:51:42;3.97;;;1.50;;
59239;SDS011;45010;53.640;10.578;2023-05-28T01:54:43;2.15;;;1.20;;
59239;SDS011;45010;53.640;10.578;2023-05-28T01:57:43;1.77;;;1.30;;
59239;SDS011;45010;53.640;10.578;2023-05-28T02:00:46;2.15;;;1.30;;
59239;SDS011;45010;53.640;10.578;2023-05-28T02:03:58;2.38;;;1.10;;
59239;SDS011;45010;53.640;10.578;2023-05-28T02:06:59;2.80;;;1.65;;
59239;SDS011;45010;53.640;10.578;2023-05-28T02:09:59;4.53;;;1.48;;
59239;SDS011;45010;53.640;10.578;2023-05-28T02:13:00;4.95;;;1.42;;
59239;SDS011;45010;53.640;10.578;2023-05-28T02:16:00;2.83;;;1.52;;
59239;SDS011;45010;53.640;10.578;2023-05-28T02:19:01;2.05;;;1.08;;
59239;SDS011;45010;53.640;10.578;2023-05-28T02:22:02;2.65;;;1.40;;
59239;SDS011;45010;53.640;10.578;2023-05-28T02:25:10;3.08;;;1.50;;
59239;SDS011;45010;53.640;10.578;2023-05-28T02:28:10;2.25;;;1.65;;
59239;SDS011;45010;53.640;10.578;2023-05-28T02:31:10;2.53;;;1.38;;
59239;SDS011;45010;53.640;10.578;2023-05-28T02:34:11;4.93;;;1.45;;
59239;SDS011;45010;53.640;10.578;2023-05-28T02:37:12;2.13;;;1.30;;
59239;SDS011;45010;53.640;10.578;2023-05-28T02:40:13;3.40;;;1.60;;
59239;SDS011;45010;53.640;10.578;2023-05-28T02:43:13;1.98;;;1.20;;
59239;SDS011;45010;53.640;10.578;2023-05-28T02:46:13;2.25;;;1.30;;
59239;SDS011;45010;53.640;10.578;2023-05-28T02:49:14;4.05;;;1.30;;
59239;SDS011;45010;53.640;10.578;2023-05-28T02:52:14;2.22;;;1.33;;
59239;SDS011;45010;53.640;10.578;2023-05-28T02:55:15;1.80;;;1.33;;
59239;SDS011;45010;53.640;10.578;2023-05-28T02:58:16;2.05;;;1.15;;
59239;SDS011;45010;53.640;10.578;2023-05-28T03:01:17;1.52;;;1.27;;
59239;SDS011;45010;53.640;10.578;2023-05-28T03:04:17;2.05;;;1.20;;
59239;SDS011;45010;53.640;10.578;2023-05-28T03:07:18;1.60;;;1.20;;
59239;SDS011;45010;53.640;10.578;2023-05-28T03:10:18;5.38;;;1.70;;
59239;SDS011;45010;53.640;10.578;2023-05-28T03:13:18;1.70;;;1.00;;
59239;SDS011;45010;53.640;10.578;2023-05-28T03:16:19;2.33;;;1.42;;
59239;SDS011;45010;53.640;10.578;2023-05-28T03:19:19;2.13;;;1.38;;
59239;SDS011;45010;53.640;10.578;2023-05-28T03:22:20;2.20;;;1.13;;
59239;SDS011;45010;53.640;10.578;2023-05-28T03:25:20;1.85;;;1.20;;
59239;SDS011;45010;53.640;10.578;2023-05-28T03:28:20;2.30;;;1.33;;
59239;SDS011;45010;53.640;10.578;2023-05-28T03:31:24;1.42;;;1.33;;
59239;SDS011;45010;53.640;10.578;2023-05-28T03:34:28;2.10;;;1.35;;
59239;SDS011;45010;53.640;10.578;2023-05-28T03:37:28;1.73;;;1.20;;
59239;SDS011;45010;53.640;10.578;2023-05-28T03:40:28;1.63;;;1.02;;
59239;SDS011;45010;53.640;10.578;2023-05-28T03:43:29;1.88;;;1.17;;
59239;SDS011;45010;53.640;10.578;2023-05-28T03:46:30;1.80;;;1.50;;
59239;SDS011;45010;53.640;10.578;2023-05-28T03:49:30;1.73;;;1.30;;
59239;SDS011;45010;53.640;10.578;2023-05-28T03:52:31;1.77;;;1.20;;
59239;SDS011;45010;53.640;10.578;2023-05-28T03:55:32;2.50;;;1.10;;
59239;SDS011;45010;53.640;10.578;2023-05-28T03:58:33;2.10;;;1.40;;
59239;SDS011;45010;53.640;10.578;2023-05-28T04:01:33;1.35;;;0.95;;
59239;SDS011;45010;53.640;10.578;2023-05-28T04:04:36;1.63;;;1.17;;
59239;SDS011;45010;53.640;10.578;2023-05-28T04:07:36;2.30;;;1.40;;
59239;SDS011;45010;53.640;10.578;2023-05-28T04:10:36;2.03;;;1.23;;
59239;SDS011;45010;53.640;10.578;2023-05-28T04:13:37;1.52;;;1.10;;
59239;SDS011;45010;53.640;10.578;2023-05-28T04:16:37;2.55;;;1.23;;
59239;SDS011;45010;53.640;10.578;2023-05-28T04:19:37;2.05;;;1.30;;
59239;SDS011;45010;53.640;10.578;2023-05-28T04:22:38;1.45;;;1.00;;
59239;SDS011;45010;53.640;10.578;2023-05-28T04:25:38;2.20;;;1.50;;
59239;SDS011;45010;53.640;10.578;2023-05-28T04:28:38;1.52;;;1.10;;
59239;SDS011;45010;53.640;10.578;2023-05-28T04:31:39;1.52;;;1.10;;
59239;SDS011;45010;53.640;10.578;2023-05-28T04:34:40;2.63;;;1.45;;
59239;SDS011;45010;53.640;10.578;2023-05-28T04:37:41;1.73;;;1.20;;
59239;SDS011;45010;53.640;10.578;2023-05-28T04:40:42;1.55;;;1.10;;
59239;SDS011;45010;53.640;10.578;2023-05-28T04:43:42;1.45;;;1.20;;
59239;SDS011;45010;53.640;10.578;2023-05-28T04:46:43;2.03;;;1.23;;
59239;SDS011;45010;53.640;10.578;2023-05-28T04:49:45;2.20;;;1.17;;
59239;SDS011;45010;53.640;10.578;2023-05-28T04:52:45;2.22;;;1.00;;
59239;SDS011;45010;53.640;10.578;2023-05-28T04:55:45;1.60;;;1.10;;
59239;SDS011;45010;53.640;10.578;2023-05-28T04:58:46;2.08;;;1.15;;
59239;SDS011;45010;53.640;10.578;2023-05-28T05:01:46;2.15;;;1.10;;
59239;SDS011;45010;53.640;10.578;2023-05-28T05:04:47;2.25;;;1.30;;
59239;SDS011;45010;53.640;10.578;2023-05-28T05:07:47;2.30;;;1.30;;
59239;SDS011;45010;53.640;10.578;2023-05-28T05:10:48;2.10;;;1.30;;
59239;SDS011;45010;53.640;10.578;2023-05-28T05:13:49;1.92;;;1.40;;
59239;SDS011;45010;53.640;10.578;2023-05-28T05:16:49;2.45;;;1.10;;
59239;SDS011;45010;53.640;10.578;2023-05-28T05:19:50;1.88;;;1.27;;
59239;SDS011;45010;53.640;10.578;2023-05-28T05:22:50;1.70;;;1.17;;
59239;SDS011;45010;53.640;10.578;2023-05-28T05:25:50;1.73;;;1.00;;
59239;SDS011;45010;53.640;10.578;2023-05-28T05:28:51;3.53;;;1.45;;
59239;SDS011;45010;53.640;10.578;2023-05-28T05:31:51;2.10;;;1.25;;
59239;SDS011;45010;53.640;10.578;2023-05-28T05:34:52;2.03;;;1.15;;
59239;SDS011;45010;53.640;10.578;2023-05-28T05:37:52;2.67;;;1.20;;
59239;SDS011;45010;53.640;10.578;2023-05-28T05:40:52;1.63;;;1.10;;
59239;SDS011;45010;53.640;10.578;2023-05-28T05:43:53;1.65;;;1.10;;
59239;SDS011;45010;53.640;10.578;2023-05-28T05:46:53;2.00;;;1.38;;
59239;SDS011;45010;53.640;10.578;2023-05-28T05:49:54;3.00;;;1.10;;
59239;SDS011;45010;53.640;10.578;2023-05-28T05:52:54;2.13;;;1.20;;
59239;SDS011;45010;53.640;10.578;2023-05-28T05:55:55;2.78;;;1.33;;
59239;SDS011;45010;53.640;10.578;2023-05-28T05:58:57;1.83;;;1.10;;
59239;SDS011;45010;53.640;10.578;2023-05-28T06:01:58;3.50;;;1.15;;
59239;SDS011;45010;53.640;10.578;2023-05-28T06:04:58;1.83;;;1.20;;
59239;SDS011;45010;53.640;10.578;2023-05-28T06:07:58;1.40;;;1.10;;
59239;SDS011;45010;53.640;10.578;2023-05-28T06:10:59;3.05;;;1.42;;
59239;SDS011;45010;53.640;10.578;2023-05-28T06:13:59;1.77;;;1.17;;
59239;SDS011;45010;53.640;10.578;2023-05-28T06:17:00;3.60;;;1.73;;
59239;SDS011;45010;53.640;10.578;2023-05-28T06:20:00;1.70;;;1.40;;
59239;SDS011;45010;53.640;10.578;2023-05-28T06:23:00;3.08;;;1.50;;
59239;SDS011;45010;53.640;10.578;2023-05-28T06:26:01;1.38;;;1.02;;
59239;SDS011;45010;53.640;10.578;2023-05-28T06:29:03;2.88;;;1.50;;
59239;SDS011;45010;53.640;10.578;2023-05-28T06:32:05;1.80;;;1.13;;
59239;SDS011;45010;53.640;10.578;2023-05-28T06:35:06;3.17;;;1.40;;
59239;SDS011;45010;53.640;10.578;2023-05-28T06:38:07;3.33;;;1.55;;
59239;SDS011;45010;53.640;10.578;2023-05-28T06:41:08;2.53;;;1.20;;
59239;SDS011;45010;53.640;10.578;2023-05-28T06:44:08;1.95;;;1.15;;
59239;SDS011;45010;53.640;10.578;2023-05-28T06:47:08;3.25;;;1.50;;
59239;SDS011;45010;53.640;10.578;2023-05-28T06:50:09;2.85;;;1.40;;
59239;SDS011;45010;53.640;10.578;2023-05-28T06:53:09;2.92;;;1.67;;
59239;SDS011;45010;53.640;10.578;2023-05-28T06:56:10;2.75;;;1.52;;
59239;SDS011;45010;53.640;10.578;2023-05-28T06:59:11;3.65;;;1.50;;
59239;SDS011;45010;53.640;10.578;2023-05-28T07:02:11;1.80;;;1.13;;
59239;SDS011;45010;53.640;10.578;2023-05-28T07:05:11;1.48;;;1.17;;
59239;SDS011;45010;53.640;10.578;2023-05-28T07:08:12;2.42;;;1.50;;
59239;SDS011;45010;53.640;10.578;2023-05-28T07:11:13;2.08;;;1.52;;
59239;SDS011;45010;53.640;10.578;2023-05-28T07:14:13;2.70;;;1.73;;
59239;SDS011;45010;53.640;10.578;2023-05-28T07:17:14;2.80;;;1.60;;
59239;SDS011;45010;53.640;10.578;2023-05-28T07:20:14;3.08;;;1.38;;
59239;SDS011;45010;53.640;10.578;2023-05-28T07:23:16;3.05;;;1.38;;
59239;SDS011;45010;53.640;10.578;2023-05-28T07:26:16;4.93;;;1.83;;
59239;SDS011;45010;53.640;10.578;2023-05-28T07:29:17;3.35;;;1.60;;
59239;SDS011;45010;53.640;10.578;2023-05-28T07:32:18;4.22;;;2.00;;
59239;SDS011;45010;53.640;10.578;2023-05-28T07:35:18;5.97;;;1.80;;
59239;SDS011;45010;53.640;10.578;2023-05-28T07:38:18;3.88;;;1.60;;
59239;SDS011;45010;53.640;10.578;2023-05-28T07:41:19;3.42;;;1.55;;
59239;SDS011;45010;53.640;10.578;2023-05-28T07:44:21;3.33;;;1.60;;
59239;SDS011;45010;53.640;10.578;2023-05-28T07:47:22;2.45;;;1.33;;
59239;SDS011;45010;53.640;10.578;2023-05-28T07:50:22;4.82;;;1.52;;
59239;SDS011;45010;53.640;10.578;2023-05-28T07:53:22;4.25;;;1.70;;
59239;SDS011;45010;53.640;10.578;2023-05-28T07:56:23;3.88;;;1.65;;
59239;SDS011;45010;53.640;10.578;2023-05-28T07:59:23;2.97;;;1.75;;
59239;SDS011;45010;53.640;10.578;2023-05-28T08:02:23;3.72;;;1.52;;
59239;SDS011;45010;53.640;10.578;2023-05-28T08:05:24;4.50;;;1.85;;
59239;SDS011;45010;53.640;10.578;2023-05-28T08:08:24;3.95;;;1.88;;
59239;SDS011;45010;53.640;10.578;2023-05-28T08:11:25;5.90;;;2.10;;
59239;SDS011;45010;53.640;10.578;2023-05-28T08:14:25;5.75;;;2.30;;
59239;SDS011;45010;53.640;10.578;2023-05-28T08:17:29;7.47;;;2.65;;
59239;SDS011;45010;53.640;10.578;2023-05-28T08:20:30;5.15;;;2.47;;
59239;SDS011;45010;53.640;10.578;2023-05-28T08:23:31;5.22;;;2.58;;
59239;SDS011;45010;53.640;10.578;2023-05-28T08:26:34;8.75;;;3.20;;
59239;SDS011;45010;53.640;10.578;2023-05-28T08:29:34;5.38;;;2.78;;
59239;SDS011;45010;53.640;10.578;2023-05-28T08:32:35;3.75;;;2.47;;
59239;SDS011;45010;53.640;10.578;2023-05-28T08:35:35;5.70;;;2.20;;
59239;SDS011;45010;53.640;10.578;2023-05-28T08:38:35;8.05;;;3.17;;
59239;SDS011;45010;53.640;10.578;2023-05-28T08:41:36;8.52;;;2.60;;
59239;SDS011;45010;53.640;10.578;2023-05-28T08:44:36;6.25;;;2.67;;
59239;SDS011;45010;53.640;10.578;2023-05-28T08:47:36;5.53;;;2.80;;
59239;SDS011;45010;53.640;10.578;2023-05-28T08:50:37;7.05;;;2.80;;
59239;SDS011;45010;53.640;10.578;2023-05-28T08:53:43;9.25;;;2.65;;
59239;SDS011;45010;53.640;10.578;2023-05-28T08:56:45;9.32;;;3.25;;
59239;SDS011;45010;53.640;10.578;2023-05-28T08:59:46;6.38;;;3.00;;
59239;SDS011;45010;53.640;10.578;2023-05-28T09:02:47;12.30;;;2.90;;
59239;SDS011;45010;53.640;10.578;2023-05-28T09:05:47;7.95;;;2.90;;
59239;SDS011;45010;53.640;10.578;2023-05-28T09:08:48;6.70;;;2.67;;
59239;SDS011;45010;53.640;10.578;2023-05-28T09:11:48;12.65;;;3.17;;
59239;SDS011;45010;53.640;10.578;2023-05-28T09:14:52;9.25;;;2.58;;
59239;SDS011;45010;53.640;10.578;2023-05-28T09:17:53;7.45;;;2.75;;
59239;SDS011;45010;53.640;10.578;2023-05-28T09:20:58;6.15;;;2.40;;
59239;SDS011;45010;53.640;10.578;2023-05-28T09:23:59;8.23;;;2.83;;
59239;SDS011;45010;53.640;10.578;2023-05-28T09:27:00;6.28;;;2.72;;
59239;SDS011;45010;53.640;10.578;2023-05-28T09:30:02;4.85;;;2.42;;
59239;SDS011;45010;53.640;10.578;2023-05-28T09:33:05;7.95;;;2.67;;
59239;SDS011;45010;53.640;10.578;2023-05-28T09:36:07;6.30;;;2.20;;
59239;SDS011;45010;53.640;10.578;2023-05-28T09:39:08;4.65;;;3.00;;
59239;SDS011;45010;53.640;10.578;2023-05-28T09:42:08;6.50;;;2.55;;
59239;SDS011;45010;53.640;10.578;2023-05-28T09:45:10;5.95;;;2.45;;
59239;SDS011;45010;53.640;10.578;2023-05-28T09:48:11;7.72;;;2.75;;
59239;SDS011;45010;53.640;10.578;2023-05-28T09:51:11;5.97;;;2.50;;
59239;SDS011;45010;53.640;10.578;2023-05-28T09:54:14;6.10;;;2.33;;
59239;SDS011;45010;53.640;10.578;2023-05-28T09:57:15;5.55;;;2.40;;
59239;SDS011;45010;53.640;10.578;2023-05-28T10:00:21;4.70;;;2.50;;
59239;SDS011;45010;53.640;10.578;2023-05-28T10:03:38;4.60;;;2.72;;
59239;SDS011;45010;53.640;10.578;2023-05-28T10:06:46;4.20;;;2.42;;
59239;SDS011;45010;53.640;10.578;2023-05-28T10:09:46;6.65;;;2.70;;
59239;SDS011;45010;53.640;10.578;2023-05-28T10:12:47;3.22;;;2.10;;
59239;SDS011;45010;53.640;10.578;2023-05-28T10:15:50;4.93;;;2.05;;
59239;SDS011;45010;53.640;10.578;2023-05-28T10:18:52;3.58;;;2.30;;
59239;SDS011;45010;53.640;10.578;2023-05-28T10:21:53;3.90;;;2.00;;
59239;SDS011;45010;53.640;10.578;2023-05-28T10:24:55;4.47;;;2.47;;
59239;SDS011;45010;53.640;10.578;2023-05-28T10:27:59;3.45;;;2.20;;
59239;SDS011;45010;53.640;10.578;2023-05-28T10:31:06;4.50;;;2.30;;
59239;SDS011;45010;53.640;10.578;2023-05-28T10:34:16;6.68;;;2.70;;
59239;SDS011;45010;53.640;10.578;2023-05-28T10:37:22;3.55;;;2.55;;
59239;SDS011;45010;53.640;10.578;2023-05-28T10:40:23;4.20;;;2.60;;
59239;SDS011;45010;53.640;10.578;2023-05-28T10:43:39;4.75;;;2.42;;
59239;SDS011;45010;53.640;10.578;2023-05-28T10:46:45;2.83;;;2.10;;
59239;SDS011;45010;53.640;10.578;2023-05-28T10:50:11;3.97;;;2.28;;
59239;SDS011;45010;53.640;10.578;2023-05-28T10:53:12;3.88;;;2.20;;
59239;SDS011;45010;53.640;10.578;2023-05-28T10:56:17;2.70;;;2.20;;
59239;SDS011;45010;53.640;10.578;2023-05-28T10:59:17;3.90;;;1.90;;
59239;SDS011;45010;53.640;10.578;2023-05-28T11:02:36;2.95;;;1.85;;
59239;SDS011;45010;53.640;10.578;2023-05-28T11:05:36;4.55;;;2.25;;
59239;SDS011;45010;53.640;10.578;2023-05-28T11:08:41;2.95;;;2.08;;
59239;SDS011;45010;53.640;10.578;2023-05-28T11:11:44;4.05;;;2.05;;
59239;SDS011;45010;53.640;10.578;2023-05-28T11:14:44;2.92;;;2.17;;
59239;SDS011;45010;53.640;10.578;2023-05-28T11:17:45;4.25;;;2.13;;
59239;SDS011;45010;53.640;10.578;2023-05-28T11:20:46;3.22;;;2.03;;
59239;SDS011;45010;53.640;10.578;2023-05-28T11:23:58;3.17;;;1.92;;
59239;SDS011;45010;53.640;10.578;2023-05-28T11:26:59;3.58;;;1.95;;
59239;SDS011;45010;53.640;10.578;2023-05-28T11:29:59;3.47;;;2.00;;
59239;SDS011;45010;53.640;10.578;2023-05-28T11:33:01;3.42;;;1.92;;
59239;SDS011;45010;53.640;10.578;2023-05-28T11:36:02;3.70;;;1.95;;
59239;SDS011;45010;53.640;10.578;2023-05-28T11:39:03;3.35;;;2.15;;
59239;SDS011;45010;53.640;10.578;2023-05-28T11:42:03;2.67;;;1.90;;
59239;SDS011;45010;53.640;10.578;2023-05-28T11:45:05;3.42;;;2.10;;
59239;SDS011;45010;53.640;10.578;2023-05-28T11:48:12;2.92;;;1.90;;
59239;SDS011;45010;53.640;10.578;2023-05-28T11:51:13;2.67;;;2.20;;
59239;SDS011;45010;53.640;10.578;2023-05-28T11:54:13;4.60;;;2.08;;
59239;SDS011;45010;53.640;10.578;2023-05-28T11:57:21;3.38;;;2.08;;
59239;SDS011;45010;53.640;10.578;2023-05-28T12:00:32;3.15;;;1.85;;
59239;SDS011;45010;53.640;10.578;2023-05-28T12:03:34;4.65;;;2.13;;
59239;SDS011;45010;53.640;10.578;2023-05-28T12:06:48;7.07;;;2.15;;
59239;SDS011;45010;53.640;10.578;2023-05-28T12:10:00;5.25;;;2.22;;
59239;SDS011;45010;53.640;10.578;2023-05-28T12:13:08;8.32;;;2.40;;
59239;SDS011;45010;53.640;10.578;2023-05-28T12:16:12;3.90;;;2.17;;
59239;SDS011;45010;53.640;10.578;2023-05-28T12:19:15;4.63;;;2.30;;
59239;SDS011;45010;53.640;10.578;2023-05-28T12:22:16;5.05;;;2.67;;
59239;SDS011;45010;53.640;10.578;2023-05-28T12:25:18;7.65;;;2.50;;
59239;SDS011;45010;53.640;10.578;2023-05-28T12:28:19;6.47;;;2.35;;
59239;SDS011;45010;53.640;10.578;2023-05-28T12:31:26;5.30;;;2.53;;
59239;SDS011;45010;53.640;10.578;2023-05-28T12:34:28;6.13;;;2.30;;
59239;SDS011;45010;53.640;10.578;2023-05-28T12:37:28;3.92;;;2.17;;
59239;SDS011;45010;53.640;10.578;2023-05-28T12:40:29;6.95;;;2.80;;
59239;SDS011;45010;53.640;10.578;2023-05-28T12:43:30;7.18;;;2.65;;
59239;SDS011;45010;53.640;10.578;2023-05-28T12:46:30;7.68;;;3.13;;
59239;SDS011;45010;53.640;10.578;2023-05-28T12:49:30;9.10;;;2.97;;
59239;SDS011;45010;53.640;10.578;2023-05-28T12:52:31;6.10;;;2.75;;
59239;SDS011;45010;53.640;10.578;2023-05-28T12:55:33;6.93;;;2.97;;
59239;SDS011;45010;53.640;10.578;2023-05-28T12:58:33;5.38;;;2.75;;
59239;SDS011;45010;53.640;10.578;2023-05-28T13:01:34;5.90;;;2.60;;
59239;SDS011;45010;53.640;10.578;2023-05-28T13:04:34;4.47;;;2.60;;
59239;SDS011;45010;53.640;10.578;2023-05-28T13:07:35;6.43;;;2.85;;
59239;SDS011;45010;53.640;10.578;2023-05-28T13:10:35;5.70;;;2.50;;
59239;SDS011;45010;53.640;10.578;2023-05-28T13:13:35;7.53;;;3.28;;
59239;SDS011;45010;53.640;10.578;2023-05-28T13:16:36;5.28;;;3.10;;
59239;SDS011;45010;53.640;10.578;2023-05-28T13:19:36;4.05;;;2.72;;
59239;SDS011;45010;53.640;10.578;2023-05-28T13:22:37;6.07;;;2.97;;
59239;SDS011;45010;53.640;10.578;2023-05-28T13:25:37;5.32;;;3.13;;
59239;SDS011;45010;53.640;10.578;2023-05-28T13:28:38;6.25;;;3.15;;
59239;SDS011;45010;53.640;10.578;2023-05-28T13:31:38;5.80;;;3.28;;
59239;SDS011;45010;53.640;10.578;2023-05-28T13:34:38;6.85;;;2.90;;
59239;SDS011;45010;53.640;10.578;2023-05-28T13:37:39;7.75;;;3.40;;
59239;SDS011;45010;53.640;10.578;2023-05-28T13:40:40;5.53;;;3.05;;
59239;SDS011;45010;53.640;10.578;2023-05-28T13:43:40;7.45;;;2.83;;
59239;SDS011;45010;53.640;10.578;2023-05-28T13:46:42;5.57;;;3.25;;
59239;SDS011;45010;53.640;10.578;2023-05-28T13:49:42;5.25;;;2.97;;
59239;SDS011;45010;53.640;10.578;2023-05-28T13:52:43;7.00;;;3.08;;
59239;SDS011;45010;53.640;10.578;2023-05-28T13:55:44;5.35;;;3.15;;
59239;SDS011;45010;53.640;10.578;2023-05-28T13:58:44;6.28;;;3.67;;
59239;SDS011;45010;53.640;10.578;2023-05-28T14:01:44;5.70;;;2.88;;
59239;SDS011;45010;53.640;10.578;2023-05-28T14:04:45;7.63;;;3.45;;
59239;SDS011;45010;53.640;10.578;2023-05-28T14:07:45;7.32;;;3.58;;
59239;SDS011;45010;53.640;10.578;2023-05-28T14:10:45;6.97;;;3.50;;
59239;SDS011;45010;53.640;10.578;2023-05-28T14:13:46;6.07;;;3.25;;
59239;SDS011;45010;53.640;10.578;2023-05-28T14:16:46;5.60;;;3.47;;
59239;SDS011;45010;53.640;10.578;2023-05-28T14:19:47;7.82;;;3.33;;
59239;SDS011;45010;53.640;10.578;2023-05-28T14:22:47;5.65;;;3.20;;
59239;SDS011;45010;53.640;10.578;2023-05-28T14:25:47;6.53;;;3.45;;
59239;SDS011;45010;53.640;10.578;2023-05-28T14:28:48;8.77;;;3.28;;
59239;SDS011;45010;53.640;10.578;2023-05-28T14:31:48;10.00;;;3.75;;
59239;SDS011;45010;53.640;10.578;2023-05-28T14:34:50;8.50;;;2.97;;
59239;SDS011;45010;53.640;10.578;2023-05-28T14:37:50;7.53;;;3.60;;
59239;SDS011;45010;53.640;10.578;2023-05-28T14:40:50;6.32;;;3.63;;
59239;SDS011;45010;53.640;10.578;2023-05-28T14:43:51;7.15;;;3.63;;
59239;SDS011;45010;53.640;10.578;2023-05-28T14:46:51;7.45;;;3.58;;
59239;SDS011;45010;53.640;10.578;2023-05-28T14:49:51;5.45;;;3.10;;
59239;SDS011;45010;53.640;10.578;2023-05-28T14:52:52;6.95;;;3.47;;
59239;SDS011;45010;53.640;10.578;2023-05-28T14:55:52;7.10;;;3.58;;
59239;SDS011;45010;53.640;10.578;2023-05-28T14:58:52;7.63;;;3.60;;
59239;SDS011;45010;53.640;10.578;2023-05-28T15:01:53;7.55;;;3.47;;
59239;SDS011;45010;53.640;10.578;2023-05-28T15:04:53;6.05;;;3.50;;
59239;SDS011;45010;53.640;10.578;2023-05-28T15:07:53;6.32;;;3.92;;
59239;SDS011;45010;53.640;10.578;2023-05-28T15:10:54;5.18;;;3.45;;
59239;SDS011;45010;53.640;10.578;2023-05-28T15:13:54;6.80;;;3.40;;
59239;SDS011;45010;53.640;10.578;2023-05-28T15:16:55;8.38;;;3.33;;
59239;SDS011;45010;53.640;10.578;2023-05-28T15:19:55;6.38;;;3.33;;
59239;SDS011;45010;53.640;10.578;2023-05-28T15:22:57;7.25;;;3.38;;
59239;SDS011;45010;53.640;10.578;2023-05-28T15:25:58;5.13;;;3.00;;
59239;SDS011;45010;53.640;10.578;2023-05-28T15:28:58;5.20;;;3.25;;
59239;SDS011;45010;53.640;10.578;2023-05-28T15:32:00;6.60;;;3.10;;
59239;SDS011;45010;53.640;10.578;2023-05-28T15:35:03;4.72;;;2.80;;
59239;SDS011;45010;53.640;10.578;2023-05-28T15:38:03;6.72;;;3.20;;
59239;SDS011;45010;53.640;10.578;2023-05-28T15:41:04;4.47;;;3.10;;
59239;SDS011;45010;53.640;10.578;2023-05-28T15:44:05;6.80;;;3.53;;
59239;SDS011;45010;53.640;10.578;2023-05-28T15:47:06;6.28;;;2.88;;
59239;SDS011;45010;53.640;10.578;2023-05-28T15:50:06;6.53;;;3.00;;
59239;SDS011;45010;53.640;10.578;2023-05-28T15:53:07;6.13;;;3.13;;
59239;SDS011;45010;53.640;10.578;2023-05-28T15:56:07;4.43;;;2.80;;
59239;SDS011;45010;53.640;10.578;2023-05-28T15:59:08;4.78;;;2.65;;
59239;SDS011;45010;53.640;10.578;2023-05-28T16:02:08;6.38;;;3.08;;
59239;SDS011;45010;53.640;10.578;2023-05-28T16:05:10;4.95;;;2.85;;
59239;SDS011;45010;53.640;10.578;2023-05-28T16:08:11;4.32;;;2.70;;
59239;SDS011;45010;53.640;10.578;2023-05-28T16:11:12;5.88;;;2.35;;
59239;SDS011;45010;53.640;10.578;2023-05-28T16:14:14;4.85;;;2.42;;
59239;SDS011;45010;53.640;10.578;2023-05-28T16:17:17;4.45;;;2.63;;
59239;SDS011;45010;53.640;10.578;2023-05-28T16:20:18;4.53;;;2.42;;
59239;SDS011;45010;53.640;10.578;2023-05-28T16:23:19;4.57;;;2.53;;
59239;SDS011;45010;53.640;10.578;2023-05-28T16:26:19;6.63;;;2.88;;
59239;SDS011;45010;53.640;10.578;2023-05-28T16:29:20;3.78;;;2.47;;
59239;SDS011;45010;53.640;10.578;2023-05-28T16:32:21;4.95;;;2.50;;
59239;SDS011;45010;53.640;10.578;2023-05-28T16:35:23;3.47;;;2.38;;
59239;SDS011;45010;53.640;10.578;2023-05-28T16:38:24;8.68;;;3.10;;
59239;SDS011;45010;53.640;10.578;2023-05-28T16:41:25;6.45;;;2.50;;
59239;SDS011;45010;53.640;10.578;2023-05-28T16:44:26;8.15;;;2.30;;
59239;SDS011;45010;53.640;10.578;2023-05-28T16:47:27;4.10;;;2.28;;
59239;SDS011;45010;53.640;10.578;2023-05-28T16:50:27;6.45;;;2.65;;
59239;SDS011;45010;53.640;10.578;2023-05-28T16:53:28;4.00;;;2.90;;
59239;SDS011;45010;53.640;10.578;2023-05-28T16:56:28;6.25;;;2.20;;
59239;SDS011;45010;53.640;10.578;2023-05-28T16:59:29;3.00;;;1.92;;
59239;SDS011;45010;53.640;10.578;2023-05-28T17:02:30;3.17;;;2.25;;
59239;SDS011;45010;53.640;10.578;2023-05-28T17:05:30;2.85;;;2.00;;
59239;SDS011;45010;53.640;10.578;2023-05-28T17:08:30;3.28;;;2.20;;
59239;SDS011;45010;53.640;10.578;2023-05-28T17:11:31;5.32;;;1.92;;
59239;SDS011;45010;53.640;10.578;2023-05-28T17:14:31;3.72;;;2.40;;
59239;SDS011;45010;53.640;10.578;2023-05-28T17:17:32;2.95;;;1.48;;
59239;SDS011;45010;53.640;10.578;2023-05-28T17:20:33;5.35;;;2.13;;
59239;SDS011;45010;53.640;10.578;2023-05-28T17:23:36;3.17;;;1.80;;
59239;SDS011;45010;53.640;10.578;2023-05-28T17:26:37;4.93;;;2.38;;
59239;SDS011;45010;53.640;10.578;2023-05-28T17:29:37;3.45;;;2.15;;
59239;SDS011;45010;53.640;10.578;2023-05-28T17:32:37;3.78;;;1.85;;
59239;SDS011;45010;53.640;10.578;2023-05-28T17:35:38;3.72;;;2.05;;
59239;SDS011;45010;53.640;10.578;2023-05-28T17:38:38;2.60;;;1.80;;
59239;SDS011;45010;53.640;10.578;2023-05-28T17:41:39;3.30;;;1.83;;
59239;SDS011;45010;53.640;10.578;2023-05-28T17:44:39;2.88;;;1.75;;
59239;SDS011;45010;53.640;10.578;2023-05-28T17:47:39;2.70;;;1.85;;
59239;SDS011;45010;53.640;10.578;2023-05-28T17:50:40;2.47;;;1.60;;
59239;SDS011;45010;53.640;10.578;2023-05-28T17:53:40;5.70;;;1.90;;
59239;SDS011;45010;53.640;10.578;2023-05-28T17:56:41;3.50;;;1.90;;